createdAt,value
2023-05-19T00:02:26.115Z,1.90
2023-05-19T00:04:53.309Z,2.38
2023-05-19T00:07:26.035Z,7.18
2023-05-19T00:09:53.011Z,3.33
2023-05-19T00:12:19.900Z,2.13
2023-05-19T00:14:46.963Z,2.17
2023-05-19T00:17:14.387Z,4.20
2023-05-19T00:19:41.098Z,6.55
2023-05-19T00:22:07.795Z,5.57
2023-05-19T00:24:34.637Z,2.70
2023-05-19T00:27:01.283Z,4.60
2023-05-19T00:29:29.001Z,4.60
2023-05-19T00:31:56.858Z,2.70
2023-05-19T00:34:23.743Z,4.45
2023-05-19T00:36:50.683Z,2.85
2023-05-19T00:39:17.464Z,3.67
2023-05-19T00:41:44.176Z,3.00
2023-05-19T00:44:11.321Z,5.30
2023-05-19T00:46:38.236Z,3.00
2023-05-19T00:49:05.266Z,5.65
2023-05-19T00:51:32.524Z,3.03
2023-05-19T00:53:59.434Z,3.80
2023-05-19T00:56:26.923Z,2.83
2023-05-19T00:58:54.775Z,2.25
2023-05-19T01:01:22.397Z,3.72
2023-05-19T01:03:49.928Z,4.82
2023-05-19T01:06:19.127Z,3.47
2023-05-19T01:08:46.521Z,2.97
2023-05-19T01:11:13.181Z,2.63
2023-05-19T01:13:42.069Z,7.90
2023-05-19T01:16:19.406Z,6.05
2023-05-19T01:19:22.013Z,2.90
2023-05-19T01:22:32.054Z,3.42
2023-05-19T01:25:47.650Z,6.30
2023-05-19T01:28:37.060Z,6.78
2023-05-19T01:31:08.134Z,2.65
2023-05-19T01:33:35.937Z,3.30
2023-05-19T01:36:05.852Z,3.05
2023-05-19T01:38:34.217Z,3.30
2023-05-19T01:41:03.926Z,3.08
2023-05-19T01:43:31.244Z,5.60
2023-05-19T01:45:59.027Z,2.97
2023-05-19T01:48:27.318Z,4.10
2023-05-19T01:50:57.174Z,3.92
2023-05-19T01:53:24.796Z,4.50
2023-05-19T01:55:57.338Z,6.63
2023-05-19T01:58:45.458Z,5.13
2023-05-19T02:01:29.140Z,3.50
2023-05-19T02:04:18.746Z,4.55
2023-05-19T02:07:05.570Z,5.88
2023-05-19T02:10:04.247Z,3.50
2023-05-19T02:12:36.167Z,4.32
2023-05-19T02:15:16.401Z,4.40
2023-05-19T02:17:53.025Z,4.60
2023-05-19T02:20:24.592Z,7.13
2023-05-19T02:22:52.434Z,5.03
2023-05-19T02:25:22.804Z,3.80
2023-05-19T02:27:53.154Z,3.50
2023-05-19T02:30:20.938Z,4.07
2023-05-19T02:32:49.381Z,3.75
2023-05-19T02:35:19.288Z,4.10
2023-05-19T02:37:47.308Z,3.53
2023-05-19T02:40:17.180Z,7.43
2023-05-19T02:42:46.768Z,3.53
2023-05-19T02:45:17.385Z,5.85
2023-05-19T02:47:51.092Z,3.67
2023-05-19T02:50:20.325Z,4.47
2023-05-19T02:52:50.285Z,3.45
2023-05-19T02:55:17.697Z,5.75
2023-05-19T02:57:44.611Z,3.83
2023-05-19T03:00:12.132Z,4.15
2023-05-19T03:02:43.014Z,4.25
2023-05-19T03:05:15.310Z,4.43
2023-05-19T03:07:44.531Z,5.10
2023-05-19T03:10:11.772Z,5.05
2023-05-19T03:12:38.430Z,4.10
2023-05-19T03:15:05.442Z,3.72
2023-05-19T03:17:34.272Z,5.20
2023-05-19T03:20:01.713Z,3.75
2023-05-19T03:22:28.462Z,4.05
2023-05-19T03:24:55.261Z,4.47
2023-05-19T03:27:22.230Z,4.43
2023-05-19T03:29:49.130Z,6.00
2023-05-19T03:32:15.951Z,5.32
2023-05-19T03:34:42.631Z,6.22
2023-05-19T03:37:10.720Z,5.80
2023-05-19T03:39:38.461Z,5.10
2023-05-19T03:42:05.696Z,5.00
2023-05-19T03:44:32.385Z,4.07
2023-05-19T03:47:00.351Z,4.97
2023-05-19T03:50:02.422Z,5.20
2023-05-19T03:52:53.582Z,6.75
2023-05-19T03:55:29.933Z,3.53
2023-05-19T03:57:57.146Z,3.70
2023-05-19T04:00:23.961Z,3.45
2023-05-19T04:02:51.377Z,4.07
2023-05-19T04:05:18.178Z,5.30
2023-05-19T04:07:46.657Z,4.47
2023-05-19T04:10:13.976Z,6.43
2023-05-19T04:12:40.776Z,3.78
2023-05-19T04:15:08.151Z,4.72
2023-05-19T04:17:35.539Z,3.25
2023-05-19T04:20:02.905Z,2.97
2023-05-19T04:22:29.973Z,5.68
2023-05-19T04:24:56.679Z,4.68
2023-05-19T04:27:24.254Z,5.35
2023-05-19T04:29:50.865Z,3.58
2023-05-19T04:32:17.911Z,5.38
2023-05-19T04:34:47.643Z,3.17
2023-05-19T04:37:22.730Z,3.20
2023-05-19T04:39:50.023Z,4.45
2023-05-19T04:42:21.336Z,4.15
2023-05-19T04:44:52.041Z,3.35
2023-05-19T04:47:21.636Z,3.03
2023-05-19T04:49:49.100Z,3.53
2023-05-19T04:52:16.082Z,3.60
2023-05-19T04:54:43.016Z,4.32
2023-05-19T04:57:12.736Z,3.65
2023-05-19T04:59:40.036Z,3.45
2023-05-19T05:02:08.212Z,4.82
2023-05-19T05:04:37.537Z,4.90
2023-05-19T05:07:04.438Z,4.40
2023-05-19T05:09:31.121Z,3.80
2023-05-19T05:12:00.946Z,3.90
2023-05-19T05:14:28.193Z,6.30
2023-05-19T05:16:56.051Z,4.82
2023-05-19T05:19:24.737Z,4.28
2023-05-19T05:21:52.317Z,4.70
2023-05-19T05:24:19.914Z,4.80
2023-05-19T05:26:51.605Z,5.00
2023-05-19T05:29:18.403Z,4.20
2023-05-19T05:31:45.093Z,5.20
2023-05-19T05:34:11.998Z,6.55
2023-05-19T05:36:38.642Z,6.22
2023-05-19T05:39:05.648Z,4.47
2023-05-19T05:41:35.587Z,5.18
2023-05-19T05:44:08.887Z,5.53
2023-05-19T05:46:36.542Z,5.80
2023-05-19T05:49:03.909Z,5.38
2023-05-19T05:51:32.871Z,5.82
2023-05-19T05:54:00.848Z,4.45
2023-05-19T05:56:36.798Z,6.00
2023-05-19T05:59:05.845Z,4.75
2023-05-19T06:01:34.858Z,6.00
2023-05-19T06:04:04.709Z,4.35
2023-05-19T06:06:32.709Z,4.47
2023-05-19T06:09:01.531Z,4.65
2023-05-19T06:11:29.118Z,4.80
2023-05-19T06:13:58.310Z,6.85
2023-05-19T06:16:50.770Z,5.75
2023-05-19T06:19:19.960Z,5.35
2023-05-19T06:21:46.782Z,5.25
2023-05-19T06:24:14.664Z,5.07
2023-05-19T06:26:41.834Z,4.53
2023-05-19T06:29:08.678Z,4.88
2023-05-19T06:31:35.395Z,5.40
2023-05-19T06:34:12.456Z,6.90
2023-05-19T06:36:41.356Z,4.78
2023-05-19T06:39:08.720Z,4.32
2023-05-19T06:41:36.026Z,4.55
2023-05-19T06:44:04.356Z,5.82
2023-05-19T06:46:33.394Z,3.67
2023-05-19T06:49:00.633Z,5.00
2023-05-19T06:51:31.388Z,7.10
2023-05-19T06:53:59.760Z,4.40
2023-05-19T06:56:27.344Z,5.82
2023-05-19T06:58:54.176Z,3.45
2023-05-19T07:01:26.671Z,3.00
2023-05-19T07:04:00.503Z,5.32
2023-05-19T07:06:27.783Z,4.65
2023-05-19T07:08:54.562Z,4.82
2023-05-19T07:11:21.913Z,3.55
2023-05-19T07:13:48.997Z,3.13
2023-05-19T07:16:22.545Z,3.55
2023-05-19T07:18:49.378Z,2.17
2023-05-19T07:21:16.414Z,5.72
2023-05-19T07:23:43.226Z,2.88
2023-05-19T07:26:11.679Z,1.60
2023-05-19T07:28:41.319Z,1.90
2023-05-19T07:31:08.489Z,1.85
2023-05-19T07:33:35.186Z,1.75
2023-05-19T07:36:01.984Z,1.23
2023-05-19T07:38:30.305Z,1.15
2023-05-19T07:40:57.062Z,1.60
2023-05-19T07:43:24.011Z,1.58
2023-05-19T07:45:51.183Z,1.23
2023-05-19T07:48:18.804Z,1.15
2023-05-19T07:50:45.610Z,2.90
2023-05-19T07:53:12.341Z,2.35
2023-05-19T07:55:39.100Z,3.80
2023-05-19T07:58:06.596Z,1.13
2023-05-19T08:00:34.015Z,2.70
2023-05-19T08:03:01.807Z,0.80
2023-05-19T08:05:29.808Z,1.45
2023-05-19T08:07:57.477Z,0.85
2023-05-19T08:10:24.243Z,1.70
2023-05-19T08:12:50.908Z,0.80
2023-05-19T08:15:19.793Z,0.85
2023-05-19T08:17:46.593Z,0.88
2023-05-19T08:20:14.131Z,0.43
2023-05-19T08:22:40.988Z,0.50
2023-05-19T08:25:07.919Z,1.35
2023-05-19T08:27:34.572Z,2.70
2023-05-19T08:30:01.487Z,0.68
2023-05-19T08:32:28.178Z,1.15
2023-05-19T08:34:54.888Z,0.40
2023-05-19T08:37:21.660Z,0.50
2023-05-19T08:39:48.391Z,0.85
2023-05-19T08:42:15.166Z,0.77
2023-05-19T08:44:44.054Z,1.65
2023-05-19T08:47:13.992Z,1.15
2023-05-19T08:49:45.803Z,0.68
2023-05-19T08:52:58.250Z,0.52
2023-05-19T08:55:47.148Z,1.08
2023-05-19T08:58:16.351Z,2.67
2023-05-19T09:00:44.248Z,2.63
2023-05-19T09:05:44.080Z,2.30
2023-05-19T09:08:11.196Z,0.77
2023-05-19T09:10:37.921Z,0.98
2023-05-19T09:13:05.785Z,0.40
2023-05-19T09:15:34.077Z,0.40
2023-05-19T09:18:19.272Z,2.30
2023-05-19T09:20:47.177Z,0.80
2023-05-19T09:23:15.884Z,1.35
2023-05-19T09:25:50.398Z,1.13
2023-05-19T09:28:38.105Z,0.60
2023-05-19T09:31:06.280Z,1.42
2023-05-19T09:33:37.081Z,1.85
2023-05-19T09:36:08.514Z,0.90
2023-05-19T09:38:36.901Z,0.60
2023-05-19T09:41:05.689Z,0.70
2023-05-19T09:43:34.463Z,0.52
2023-05-19T09:46:07.880Z,2.00
2023-05-19T09:48:36.479Z,4.97
2023-05-19T09:51:08.075Z,1.75
2023-05-19T09:53:35.327Z,1.67
2023-05-19T09:56:03.573Z,0.50
2023-05-19T09:58:37.112Z,0.70
2023-05-19T10:01:05.107Z,2.10
2023-05-19T10:03:35.344Z,0.60
2023-05-19T10:06:04.906Z,1.02
2023-05-19T10:08:33.508Z,0.57
2023-05-19T10:11:00.725Z,0.90
2023-05-19T10:13:29.641Z,0.88
2023-05-19T10:15:59.771Z,0.80
2023-05-19T10:18:30.398Z,0.70
2023-05-19T10:20:57.991Z,2.47
2023-05-19T10:23:25.600Z,0.95
2023-05-19T10:25:56.648Z,1.23
2023-05-19T10:28:28.060Z,1.85
2023-05-19T10:30:58.806Z,2.50
2023-05-19T10:33:45.053Z,1.25
2023-05-19T10:36:14.829Z,3.45
2023-05-19T10:38:58.831Z,1.27
2023-05-19T10:41:53.719Z,0.90
2023-05-19T10:44:40.922Z,1.00
2023-05-19T10:47:08.658Z,0.50
2023-05-19T10:49:36.686Z,1.88
2023-05-19T10:52:04.316Z,1.30
2023-05-19T10:54:40.863Z,1.00
2023-05-19T10:57:08.385Z,1.77
2023-05-19T10:59:37.763Z,3.17
2023-05-19T11:02:08.797Z,1.38
2023-05-19T11:04:52.472Z,0.80
2023-05-19T11:07:21.705Z,1.50
2023-05-19T11:09:52.654Z,0.70
2023-05-19T11:12:24.802Z,0.55
2023-05-19T11:14:55.451Z,1.80
2023-05-19T11:17:25.150Z,1.67
2023-05-19T11:19:56.483Z,1.00
2023-05-19T11:22:26.190Z,0.60
2023-05-19T11:24:55.241Z,0.68
2023-05-19T11:27:32.538Z,0.60
2023-05-19T11:30:05.487Z,0.90
2023-05-19T11:32:34.725Z,0.60
2023-05-19T11:35:02.414Z,0.52
2023-05-19T11:37:32.662Z,0.82
2023-05-19T11:40:02.165Z,0.70
2023-05-19T11:42:28.823Z,0.80
2023-05-19T11:44:56.508Z,0.85
2023-05-19T11:47:23.386Z,1.25
2023-05-19T11:49:54.798Z,1.55
2023-05-19T11:52:23.154Z,0.68
2023-05-19T11:54:50.754Z,0.60
2023-05-19T11:57:17.639Z,0.82
2023-05-19T11:59:45.827Z,2.67
2023-05-19T12:02:14.068Z,4.15
2023-05-19T12:04:41.196Z,0.93
2023-05-19T12:07:08.338Z,1.90
2023-05-19T12:09:35.792Z,2.47
2023-05-19T12:12:03.112Z,1.55
2023-05-19T12:14:31.180Z,1.63
2023-05-19T12:16:58.220Z,3.58
2023-05-19T12:19:25.840Z,1.02
2023-05-19T12:21:53.960Z,3.20
2023-05-19T12:24:21.791Z,0.90
2023-05-19T12:26:50.583Z,2.05
2023-05-19T12:29:17.378Z,2.08
2023-05-19T12:31:47.119Z,1.30
2023-05-19T12:34:13.922Z,1.10
2023-05-19T12:36:41.597Z,0.80
2023-05-19T12:39:09.523Z,0.85
2023-05-19T12:44:17.696Z,1.98
2023-05-19T12:46:44.469Z,0.65
2023-05-19T12:49:11.146Z,1.23
2023-05-19T12:51:38.074Z,1.52
2023-05-19T12:54:05.062Z,1.88
2023-05-19T12:56:31.862Z,3.10
2023-05-19T12:59:01.711Z,1.45
2023-05-19T13:01:29.533Z,1.13
2023-05-19T13:03:56.438Z,2.05
2023-05-19T13:06:23.544Z,1.20
2023-05-19T13:08:50.211Z,1.27
2023-05-19T13:11:16.898Z,3.08
2023-05-19T13:13:43.667Z,2.47
2023-05-19T13:16:10.642Z,2.97
2023-05-19T13:18:38.451Z,1.10
2023-05-19T13:21:05.803Z,1.40
2023-05-19T13:23:32.578Z,2.70
2023-05-19T13:25:59.410Z,1.13
2023-05-19T13:28:26.411Z,1.45
2023-05-19T13:30:53.266Z,1.77
2023-05-19T13:33:20.066Z,1.98
2023-05-19T13:35:46.800Z,1.45
2023-05-19T13:38:15.627Z,1.38
2023-05-19T13:40:44.423Z,2.08
2023-05-19T13:43:11.205Z,1.90
2023-05-19T13:45:38.022Z,3.33
2023-05-19T13:48:07.695Z,2.20
2023-05-19T13:50:34.962Z,1.80
2023-05-19T13:53:01.670Z,1.67
2023-05-19T13:55:29.025Z,1.98
2023-05-19T13:57:55.766Z,1.70
2023-05-19T14:00:23.064Z,1.50
2023-05-19T14:02:49.933Z,1.58
2023-05-19T14:05:17.125Z,1.90
2023-05-19T14:07:44.993Z,2.05
2023-05-19T14:10:11.953Z,1.83
2023-05-19T14:12:52.787Z,4.30
2023-05-19T14:15:26.572Z,2.65
2023-05-19T14:17:53.697Z,1.90
2023-05-19T14:20:20.527Z,4.07
2023-05-19T14:22:47.268Z,2.72
2023-05-19T14:25:14.266Z,3.13
2023-05-19T14:27:41.335Z,2.38
2023-05-19T14:30:08.797Z,3.47
2023-05-19T14:32:36.007Z,2.50
2023-05-19T14:35:02.845Z,3.13
2023-05-19T14:37:31.727Z,3.15
2023-05-19T14:39:58.902Z,1.80
2023-05-19T14:42:25.969Z,2.42
2023-05-19T14:44:52.798Z,1.75
2023-05-19T14:47:19.463Z,2.13
2023-05-19T14:49:46.263Z,2.08
2023-05-19T14:52:13.082Z,2.88
2023-05-19T14:54:39.803Z,1.70
2023-05-19T14:57:08.392Z,3.03
2023-05-19T14:59:39.076Z,2.33
2023-05-19T15:02:06.444Z,3.03
2023-05-19T15:04:33.166Z,3.33
2023-05-19T15:09:29.590Z,9.07
2023-05-19T15:11:56.311Z,7.63
2023-05-19T15:14:23.866Z,7.28
2023-05-19T15:16:50.659Z,6.50
2023-05-19T15:19:17.368Z,6.70
2023-05-19T15:21:45.657Z,6.10
2023-05-19T15:24:12.463Z,4.40
2023-05-19T15:26:39.403Z,2.58
2023-05-19T15:29:06.170Z,5.00
2023-05-19T15:31:35.038Z,4.60
2023-05-19T15:34:03.341Z,3.05
2023-05-19T15:36:30.050Z,3.05
2023-05-19T15:38:56.910Z,2.47
2023-05-19T15:41:23.638Z,3.08
2023-05-19T15:43:50.431Z,2.40
2023-05-19T15:46:19.637Z,2.63
2023-05-19T15:48:46.384Z,3.30
2023-05-19T15:51:13.133Z,4.30
2023-05-19T15:53:39.944Z,3.45
2023-05-19T15:56:06.723Z,3.20
2023-05-19T15:58:33.534Z,2.97
2023-05-19T16:01:00.645Z,3.17
2023-05-19T16:03:27.599Z,3.05
2023-05-19T16:05:54.419Z,2.78
2023-05-19T16:08:22.177Z,2.80
2023-05-19T16:10:49.242Z,3.03
2023-05-19T16:13:16.085Z,3.65
2023-05-19T16:15:42.774Z,4.18
2023-05-19T16:18:09.639Z,2.97
2023-05-19T16:20:36.361Z,4.45
2023-05-19T16:23:03.329Z,2.65
2023-05-19T16:25:30.491Z,4.00
2023-05-19T16:27:57.516Z,3.97
2023-05-19T16:30:26.309Z,2.88
2023-05-19T16:32:54.383Z,2.15
2023-05-19T16:35:21.868Z,2.90
2023-05-19T16:37:49.247Z,4.45
2023-05-19T16:40:15.980Z,4.18
2023-05-19T16:42:42.742Z,4.20
2023-05-19T16:45:09.991Z,3.28
2023-05-19T16:47:36.872Z,4.82
2023-05-19T16:50:04.024Z,2.58
2023-05-19T16:52:30.777Z,3.08
2023-05-19T16:54:57.475Z,4.55
2023-05-19T16:57:24.774Z,4.82
2023-05-19T16:59:52.012Z,3.58
2023-05-19T17:02:18.835Z,2.97
2023-05-19T17:04:45.764Z,2.78
2023-05-19T17:07:16.704Z,2.55
2023-05-19T17:09:43.975Z,3.38
2023-05-19T17:12:10.961Z,2.90
2023-05-19T17:14:37.869Z,3.92
2023-05-19T17:17:04.869Z,2.15
2023-05-19T17:19:31.836Z,2.83
2023-05-19T17:21:58.629Z,6.18
2023-05-19T17:24:25.731Z,2.65
2023-05-19T17:26:52.433Z,4.70
2023-05-19T17:29:19.257Z,2.38
2023-05-19T17:31:45.979Z,1.75
2023-05-19T17:34:12.801Z,2.28
2023-05-19T17:36:39.420Z,1.83
2023-05-19T17:39:06.243Z,1.83
2023-05-19T17:41:33.153Z,3.22
2023-05-19T17:44:00.114Z,2.88
2023-05-19T17:46:26.822Z,2.65
2023-05-19T17:48:53.629Z,4.18
2023-05-19T17:51:21.192Z,2.70
2023-05-19T17:53:48.340Z,3.47
2023-05-19T17:56:15.240Z,3.53
2023-05-19T17:58:42.516Z,6.75
2023-05-19T18:01:09.490Z,3.28
2023-05-19T18:03:36.840Z,3.47
2023-05-19T18:06:03.874Z,4.47
2023-05-19T18:08:31.669Z,3.05
2023-05-19T18:10:58.724Z,3.75
2023-05-19T18:13:26.506Z,5.60
2023-05-19T18:15:53.285Z,5.15
2023-05-19T18:18:19.991Z,5.05
2023-05-19T18:20:46.735Z,2.67
2023-05-19T18:23:13.533Z,6.55
2023-05-19T18:25:40.304Z,6.07
2023-05-19T18:28:07.639Z,4.30
2023-05-19T18:30:34.494Z,6.80
2023-05-19T18:33:03.740Z,6.05
2023-05-19T18:35:30.789Z,5.82
2023-05-19T18:37:57.548Z,5.00
2023-05-19T18:40:24.509Z,4.57
2023-05-19T18:42:51.284Z,6.25
2023-05-19T18:45:18.164Z,6.22
2023-05-19T18:47:45.102Z,6.03
2023-05-19T18:50:11.913Z,4.60
2023-05-19T18:52:38.650Z,4.90
2023-05-19T18:55:07.084Z,4.55
2023-05-19T18:57:33.866Z,6.07
2023-05-19T19:00:00.465Z,6.80
2023-05-19T19:02:27.168Z,3.40
2023-05-19T19:04:53.951Z,3.38
2023-05-19T19:07:20.851Z,4.22
2023-05-19T19:09:47.461Z,6.20
2023-05-19T19:12:14.568Z,4.75
2023-05-19T19:14:41.732Z,6.55
2023-05-19T19:17:08.503Z,7.00
2023-05-19T19:19:35.388Z,5.82
2023-05-19T19:22:02.221Z,4.88
2023-05-19T19:24:30.793Z,6.53
2023-05-19T19:26:57.696Z,7.05
2023-05-19T19:29:24.405Z,6.30
2023-05-19T19:31:51.302Z,7.25
2023-05-19T19:34:19.860Z,7.82
2023-05-19T19:36:47.805Z,6.88
2023-05-19T19:39:14.686Z,4.05
2023-05-19T19:41:41.545Z,3.72
2023-05-19T19:44:08.206Z,3.85
2023-05-19T19:46:35.318Z,3.85
2023-05-19T19:49:02.150Z,5.68
2023-05-19T19:51:28.890Z,5.15
2023-05-19T19:53:55.606Z,4.85
2023-05-19T19:56:24.671Z,6.88
2023-05-19T19:58:51.720Z,10.30
2023-05-19T20:01:23.465Z,7.50
2023-05-19T20:03:50.636Z,6.45
2023-05-19T20:06:21.133Z,5.65
2023-05-19T20:08:49.035Z,6.78
2023-05-19T20:11:16.482Z,5.95
2023-05-19T20:13:43.666Z,4.22
2023-05-19T20:16:10.642Z,4.45
2023-05-19T20:18:37.626Z,6.00
2023-05-19T20:21:04.393Z,4.22
2023-05-19T20:23:31.297Z,3.55
2023-05-19T20:26:11.072Z,2.97
2023-05-19T20:28:39.849Z,3.17
2023-05-19T20:31:07.179Z,5.95
2023-05-19T20:33:34.438Z,5.32
2023-05-19T20:36:01.676Z,3.80
2023-05-19T20:38:28.637Z,4.00
2023-05-19T20:40:55.780Z,5.90
2023-05-19T20:43:22.681Z,4.43
2023-05-19T20:45:51.368Z,5.85
2023-05-19T20:48:20.458Z,4.72
2023-05-19T20:50:50.644Z,2.90
2023-05-19T20:53:20.459Z,5.72
2023-05-19T20:55:48.275Z,8.88
2023-05-19T20:58:15.466Z,3.15
2023-05-19T21:00:42.161Z,3.25
2023-05-19T21:03:09.099Z,3.08
2023-05-19T21:05:36.336Z,3.20
2023-05-19T21:08:03.252Z,4.97
2023-05-19T21:10:30.175Z,5.50
2023-05-19T21:12:58.855Z,4.00
2023-05-19T21:15:27.057Z,3.72
2023-05-19T21:17:53.896Z,4.60
2023-05-19T21:20:20.884Z,3.35
2023-05-19T21:22:47.678Z,3.78
2023-05-19T21:25:14.501Z,3.90
2023-05-19T21:27:41.407Z,3.13
2023-05-19T21:30:09.820Z,3.05
2023-05-19T21:32:36.665Z,5.30
2023-05-19T21:35:04.059Z,2.50
2023-05-19T21:37:30.975Z,2.28
2023-05-19T21:39:57.825Z,2.63
2023-05-19T21:42:24.581Z,4.35
2023-05-19T21:44:51.351Z,2.97
2023-05-19T21:47:18.162Z,3.47
2023-05-19T21:49:44.920Z,2.28
2023-05-19T21:52:11.625Z,2.78
2023-05-19T21:54:38.250Z,2.70
2023-05-19T21:57:05.609Z,2.53
2023-05-19T21:59:32.256Z,2.67
2023-05-19T22:01:59.282Z,3.33
2023-05-19T22:04:26.624Z,2.28
2023-05-19T22:06:53.422Z,3.78
2023-05-19T22:09:20.037Z,5.30
2023-05-19T22:11:46.751Z,3.90
2023-05-19T22:14:13.925Z,3.10
2023-05-19T22:16:41.083Z,3.08
2023-05-19T22:19:09.054Z,1.55
2023-05-19T22:21:36.510Z,1.58
2023-05-19T22:24:03.412Z,1.88
2023-05-19T22:26:30.502Z,2.95
2023-05-19T22:28:57.313Z,2.28
2023-05-19T22:31:24.113Z,3.03
2023-05-19T22:33:50.885Z,1.75
2023-05-19T22:36:17.818Z,2.20
2023-05-19T22:38:44.530Z,1.20
2023-05-19T22:41:11.260Z,1.83
2023-05-19T22:43:37.965Z,2.75
2023-05-19T22:46:05.095Z,1.20
2023-05-19T22:48:31.814Z,1.27
2023-05-19T22:50:58.731Z,1.42
2023-05-19T22:53:25.416Z,1.20
2023-05-19T22:55:52.125Z,1.58
2023-05-19T22:58:19.056Z,1.50
2023-05-19T23:00:45.974Z,4.85
2023-05-19T23:03:12.713Z,1.33
2023-05-19T23:05:40.273Z,1.40
2023-05-19T23:08:06.965Z,1.85
2023-05-19T23:10:33.852Z,4.97
2023-05-19T23:13:00.982Z,2.08
2023-05-19T23:15:27.716Z,3.08
2023-05-19T23:17:54.516Z,1.05
2023-05-19T23:20:21.350Z,1.85
2023-05-19T23:22:48.005Z,0.80
2023-05-19T23:25:14.794Z,1.02
2023-05-19T23:27:41.432Z,1.55
2023-05-19T23:30:08.694Z,6.85
2023-05-19T23:32:35.431Z,0.85
2023-05-19T23:35:16.803Z,0.88
2023-05-19T23:37:43.648Z,2.40
2023-05-19T23:40:10.576Z,1.30
2023-05-19T23:42:37.442Z,2.47
2023-05-19T23:45:04.592Z,1.35
2023-05-19T23:47:31.430Z,0.82
2023-05-19T23:49:58.265Z,4.20
2023-05-19T23:52:24.972Z,1.65
2023-05-19T23:54:51.644Z,1.20
2023-05-19T23:57:18.388Z,1.08
2023-05-19T23:59:45.098Z,3.42
